sensor_id;sensor_type;location;lat;lon;timestamp;P1;durP1;ratioP1;P2;durP2;ratioP2
76826;SDS011;65788;52.284;20.890;2023-07-29T00:02:11;4.00;;;1.90;;
76826;SDS011;65788;52.284;20.890;2023-07-29T00:04:37;3.90;;;1.60;;
76826;SDS011;65788;52.284;20.890;2023-07-29T00:07:04;2.60;;;1.30;;
76826;SDS011;65788;52.284;20.890;2023-07-29T00:09:31;2.60;;;1.60;;
76826;SDS011;65788;52.284;20.890;2023-07-29T00:11:58;2.50;;;1.50;;
76826;SDS011;65788;52.284;20.890;2023-07-29T00:14:24;4.90;;;1.90;;
76826;SDS011;65788;52.284;20.890;2023-07-29T00:16:51;2.40;;;1.60;;
76826;SDS011;65788;52.284;20.890;2023-07-29T00:19:18;3.20;;;1.80;;
76826;SDS011;65788;52.284;20.890;2023-07-29T00:21:44;2.90;;;1.80;;
76826;SDS011;65788;52.284;20.890;2023-07-29T00:24:11;2.90;;;1.70;;
76826;SDS011;65788;52.284;20.890;2023-07-29T00:26:38;3.40;;;1.80;;
76826;SDS011;65788;52.284;20.890;2023-07-29T00:29:04;4.10;;;1.50;;
76826;SDS011;65788;52.284;20.890;2023-07-29T00:31:31;3.60;;;1.50;;
76826;SDS011;65788;52.284;20.890;2023-07-29T00:33:57;2.60;;;1.60;;
76826;SDS011;65788;52.284;20.890;2023-07-29T00:36:24;4.30;;;1.80;;
76826;SDS011;65788;52.284;20.890;2023-07-29T00:38:51;2.40;;;1.60;;
76826;SDS011;65788;52.284;20.890;2023-07-29T00:41:19;4.10;;;1.50;;
76826;SDS011;65788;52.284;20.890;2023-07-29T00:43:48;2.90;;;1.90;;
76826;SDS011;65788;52.284;20.890;2023-07-29T00:46:15;2.40;;;1.50;;
76826;SDS011;65788;52.284;20.890;2023-07-29T00:48:43;3.30;;;1.60;;
76826;SDS011;65788;52.284;20.890;2023-07-29T00:51:09;3.60;;;1.70;;
76826;SDS011;65788;52.284;20.890;2023-07-29T00:53:36;3.10;;;1.60;;
76826;SDS011;65788;52.284;20.890;2023-07-29T00:56:03;2.80;;;1.70;;
76826;SDS011;65788;52.284;20.890;2023-07-29T00:58:30;3.40;;;1.70;;
76826;SDS011;65788;52.284;20.890;2023-07-29T01:00:57;2.90;;;1.50;;
76826;SDS011;65788;52.284;20.890;2023-07-29T01:03:24;3.30;;;1.90;;
76826;SDS011;65788;52.284;20.890;2023-07-29T01:05:56;3.70;;;2.00;;
76826;SDS011;65788;52.284;20.890;2023-07-29T01:08:45;4.20;;;1.50;;
76826;SDS011;65788;52.284;20.890;2023-07-29T01:16:30;2.40;;;1.70;;
76826;SDS011;65788;52.284;20.890;2023-07-29T01:19:04;3.00;;;1.70;;
76826;SDS011;65788;52.284;20.890;2023-07-29T01:21:35;2.40;;;1.70;;
76826;SDS011;65788;52.284;20.890;2023-07-29T01:24:03;4.00;;;1.90;;
76826;SDS011;65788;52.284;20.890;2023-07-29T01:26:30;3.00;;;1.80;;
76826;SDS011;65788;52.284;20.890;2023-07-29T01:28:57;2.80;;;1.80;;
76826;SDS011;65788;52.284;20.890;2023-07-29T01:31:32;3.20;;;1.70;;
76826;SDS011;65788;52.284;20.890;2023-07-29T01:34:14;5.20;;;1.80;;
76826;SDS011;65788;52.284;20.890;2023-07-29T01:36:49;3.50;;;1.90;;
76826;SDS011;65788;52.284;20.890;2023-07-29T01:39:18;3.50;;;1.60;;
76826;SDS011;65788;52.284;20.890;2023-07-29T01:41:48;3.70;;;1.70;;
76826;SDS011;65788;52.284;20.890;2023-07-29T01:44:17;4.40;;;2.20;;
76826;SDS011;65788;52.284;20.890;2023-07-29T01:46:45;3.60;;;1.80;;
76826;SDS011;65788;52.284;20.890;2023-07-29T01:49:13;3.10;;;2.10;;
76826;SDS011;65788;52.284;20.890;2023-07-29T01:51:39;3.90;;;2.00;;
76826;SDS011;65788;52.284;20.890;2023-07-29T01:54:06;3.80;;;2.20;;
76826;SDS011;65788;52.284;20.890;2023-07-29T01:56:33;2.40;;;1.80;;
76826;SDS011;65788;52.284;20.890;2023-07-29T01:58:59;3.10;;;2.00;;
76826;SDS011;65788;52.284;20.890;2023-07-29T02:01:26;3.30;;;1.90;;
76826;SDS011;65788;52.284;20.890;2023-07-29T02:03:52;3.30;;;2.10;;
76826;SDS011;65788;52.284;20.890;2023-07-29T02:06:21;3.50;;;2.20;;
76826;SDS011;65788;52.284;20.890;2023-07-29T02:08:48;3.50;;;1.90;;
76826;SDS011;65788;52.284;20.890;2023-07-29T02:11:15;3.00;;;1.80;;
76826;SDS011;65788;52.284;20.890;2023-07-29T02:13:42;2.90;;;1.90;;
76826;SDS011;65788;52.284;20.890;2023-07-29T02:16:08;3.30;;;1.90;;
76826;SDS011;65788;52.284;20.890;2023-07-29T02:18:35;2.90;;;1.90;;
76826;SDS011;65788;52.284;20.890;2023-07-29T02:21:02;2.90;;;1.80;;
76826;SDS011;65788;52.284;20.890;2023-07-29T02:23:29;2.80;;;1.90;;
76826;SDS011;65788;52.284;20.890;2023-07-29T02:25:56;2.80;;;2.00;;
76826;SDS011;65788;52.284;20.890;2023-07-29T02:28:22;3.40;;;2.10;;
76826;SDS011;65788;52.284;20.890;2023-07-29T02:30:54;3.80;;;2.00;;
76826;SDS011;65788;52.284;20.890;2023-07-29T02:33:37;2.80;;;2.10;;
76826;SDS011;65788;52.284;20.890;2023-07-29T02:36:03;2.80;;;1.90;;
76826;SDS011;65788;52.284;20.890;2023-07-29T02:38:31;3.30;;;2.00;;
76826;SDS011;65788;52.284;20.890;2023-07-29T02:40:58;2.50;;;1.60;;
76826;SDS011;65788;52.284;20.890;2023-07-29T02:43:24;2.80;;;1.80;;
76826;SDS011;65788;52.284;20.890;2023-07-29T02:45:51;2.80;;;1.90;;
76826;SDS011;65788;52.284;20.890;2023-07-29T02:48:18;2.40;;;1.60;;
76826;SDS011;65788;52.284;20.890;2023-07-29T02:50:44;2.80;;;1.90;;
76826;SDS011;65788;52.284;20.890;2023-07-29T02:53:11;2.80;;;1.90;;
76826;SDS011;65788;52.284;20.890;2023-07-29T02:55:41;4.00;;;1.70;;
76826;SDS011;65788;52.284;20.890;2023-07-29T02:58:07;2.80;;;2.00;;
76826;SDS011;65788;52.284;20.890;2023-07-29T03:00:34;2.70;;;1.80;;
76826;SDS011;65788;52.284;20.890;2023-07-29T03:03:01;3.10;;;1.90;;
76826;SDS011;65788;52.284;20.890;2023-07-29T03:05:28;3.10;;;1.70;;
76826;SDS011;65788;52.284;20.890;2023-07-29T03:07:55;2.50;;;1.80;;
76826;SDS011;65788;52.284;20.890;2023-07-29T03:10:22;2.60;;;1.80;;
76826;SDS011;65788;52.284;20.890;2023-07-29T03:12:48;2.50;;;1.90;;
76826;SDS011;65788;52.284;20.890;2023-07-29T03:15:15;3.30;;;1.90;;
76826;SDS011;65788;52.284;20.890;2023-07-29T03:17:42;2.60;;;1.80;;
76826;SDS011;65788;52.284;20.890;2023-07-29T03:20:08;2.40;;;1.70;;
76826;SDS011;65788;52.284;20.890;2023-07-29T03:22:35;2.60;;;1.80;;
76826;SDS011;65788;52.284;20.890;2023-07-29T03:25:02;2.90;;;1.80;;
76826;SDS011;65788;52.284;20.890;2023-07-29T03:27:29;2.00;;;1.60;;
76826;SDS011;65788;52.284;20.890;2023-07-29T03:29:56;3.40;;;2.00;;
76826;SDS011;65788;52.284;20.890;2023-07-29T03:32:23;2.80;;;2.10;;
76826;SDS011;65788;52.284;20.890;2023-07-29T03:34:50;3.00;;;2.00;;
76826;SDS011;65788;52.284;20.890;2023-07-29T03:37:16;3.10;;;1.80;;
76826;SDS011;65788;52.284;20.890;2023-07-29T03:39:43;2.60;;;1.90;;
76826;SDS011;65788;52.284;20.890;2023-07-29T03:42:10;2.70;;;1.80;;
76826;SDS011;65788;52.284;20.890;2023-07-29T03:44:36;2.30;;;1.70;;
76826;SDS011;65788;52.284;20.890;2023-07-29T03:47:05;2.70;;;1.90;;
76826;SDS011;65788;52.284;20.890;2023-07-29T03:49:32;2.30;;;1.70;;
76826;SDS011;65788;52.284;20.890;2023-07-29T03:51:59;3.40;;;2.20;;
76826;SDS011;65788;52.284;20.890;2023-07-29T03:54:26;2.80;;;1.90;;
76826;SDS011;65788;52.284;20.890;2023-07-29T03:56:52;2.80;;;1.70;;
76826;SDS011;65788;52.284;20.890;2023-07-29T03:59:19;4.00;;;1.90;;
76826;SDS011;65788;52.284;20.890;2023-07-29T04:01:46;3.60;;;1.80;;
76826;SDS011;65788;52.284;20.890;2023-07-29T04:04:12;3.30;;;1.70;;
76826;SDS011;65788;52.284;20.890;2023-07-29T04:06:39;2.80;;;1.90;;
76826;SDS011;65788;52.284;20.890;2023-07-29T04:09:06;2.50;;;1.90;;
76826;SDS011;65788;52.284;20.890;2023-07-29T04:11:32;2.10;;;1.70;;
76826;SDS011;65788;52.284;20.890;2023-07-29T04:13:59;2.60;;;1.80;;
76826;SDS011;65788;52.284;20.890;2023-07-29T04:16:26;2.30;;;1.70;;
76826;SDS011;65788;52.284;20.890;2023-07-29T04:18:53;1.90;;;1.50;;
76826;SDS011;65788;52.284;20.890;2023-07-29T04:21:19;2.30;;;1.70;;
76826;SDS011;65788;52.284;20.890;2023-07-29T04:23:46;2.70;;;1.70;;
76826;SDS011;65788;52.284;20.890;2023-07-29T04:26:13;2.30;;;1.70;;
76826;SDS011;65788;52.284;20.890;2023-07-29T04:28:39;2.50;;;1.70;;
76826;SDS011;65788;52.284;20.890;2023-07-29T04:31:06;2.20;;;1.70;;
76826;SDS011;65788;52.284;20.890;2023-07-29T04:33:33;2.50;;;1.80;;
76826;SDS011;65788;52.284;20.890;2023-07-29T04:36:00;2.20;;;1.60;;
76826;SDS011;65788;52.284;20.890;2023-07-29T04:38:29;2.70;;;1.90;;
76826;SDS011;65788;52.284;20.890;2023-07-29T04:40:59;2.80;;;1.70;;
76826;SDS011;65788;52.284;20.890;2023-07-29T04:43:30;2.40;;;1.70;;
76826;SDS011;65788;52.284;20.890;2023-07-29T04:45:58;2.70;;;2.00;;
76826;SDS011;65788;52.284;20.890;2023-07-29T04:48:25;2.80;;;1.80;;
76826;SDS011;65788;52.284;20.890;2023-07-29T04:50:52;2.80;;;1.60;;
76826;SDS011;65788;52.284;20.890;2023-07-29T04:53:18;2.70;;;1.70;;
76826;SDS011;65788;52.284;20.890;2023-07-29T04:55:45;2.80;;;1.80;;
76826;SDS011;65788;52.284;20.890;2023-07-29T04:58:12;2.70;;;1.80;;
76826;SDS011;65788;52.284;20.890;2023-07-29T05:00:38;2.40;;;1.60;;
76826;SDS011;65788;52.284;20.890;2023-07-29T05:03:05;3.30;;;1.70;;
76826;SDS011;65788;52.284;20.890;2023-07-29T05:05:33;2.50;;;1.70;;
76826;SDS011;65788;52.284;20.890;2023-07-29T05:07:59;2.10;;;1.40;;
76826;SDS011;65788;52.284;20.890;2023-07-29T05:10:26;2.40;;;1.60;;
76826;SDS011;65788;52.284;20.890;2023-07-29T05:12:52;2.30;;;1.60;;
76826;SDS011;65788;52.284;20.890;2023-07-29T05:15:19;2.20;;;1.70;;
76826;SDS011;65788;52.284;20.890;2023-07-29T05:17:46;2.20;;;1.50;;
76826;SDS011;65788;52.284;20.890;2023-07-29T05:20:13;2.50;;;1.90;;
76826;SDS011;65788;52.284;20.890;2023-07-29T05:22:39;2.70;;;1.60;;
76826;SDS011;65788;52.284;20.890;2023-07-29T05:25:06;2.10;;;1.40;;
76826;SDS011;65788;52.284;20.890;2023-07-29T05:27:33;3.00;;;1.80;;
76826;SDS011;65788;52.284;20.890;2023-07-29T05:30:00;2.70;;;1.70;;
76826;SDS011;65788;52.284;20.890;2023-07-29T05:32:27;1.90;;;1.40;;
76826;SDS011;65788;52.284;20.890;2023-07-29T05:34:53;2.30;;;1.70;;
76826;SDS011;65788;52.284;20.890;2023-07-29T05:37:20;2.00;;;1.50;;
76826;SDS011;65788;52.284;20.890;2023-07-29T05:39:47;2.30;;;1.70;;
76826;SDS011;65788;52.284;20.890;2023-07-29T05:42:13;2.50;;;1.70;;
76826;SDS011;65788;52.284;20.890;2023-07-29T05:44:40;2.60;;;1.70;;
76826;SDS011;65788;52.284;20.890;2023-07-29T05:47:07;2.90;;;1.70;;
76826;SDS011;65788;52.284;20.890;2023-07-29T05:49:33;2.20;;;1.60;;
76826;SDS011;65788;52.284;20.890;2023-07-29T05:52:00;2.70;;;1.80;;
76826;SDS011;65788;52.284;20.890;2023-07-29T05:54:27;3.10;;;2.20;;
76826;SDS011;65788;52.284;20.890;2023-07-29T05:56:54;1.90;;;1.40;;
76826;SDS011;65788;52.284;20.890;2023-07-29T05:59:21;2.70;;;1.80;;
76826;SDS011;65788;52.284;20.890;2023-07-29T06:01:48;3.10;;;1.90;;
76826;SDS011;65788;52.284;20.890;2023-07-29T06:04:14;2.50;;;1.70;;
76826;SDS011;65788;52.284;20.890;2023-07-29T06:06:41;2.30;;;1.80;;
76826;SDS011;65788;52.284;20.890;2023-07-29T06:09:07;2.60;;;1.90;;
76826;SDS011;65788;52.284;20.890;2023-07-29T06:11:34;2.60;;;1.70;;
76826;SDS011;65788;52.284;20.890;2023-07-29T06:14:01;2.50;;;1.90;;
76826;SDS011;65788;52.284;20.890;2023-07-29T06:16:27;2.50;;;1.70;;
76826;SDS011;65788;52.284;20.890;2023-07-29T06:18:54;2.90;;;2.00;;
76826;SDS011;65788;52.284;20.890;2023-07-29T06:21:20;3.10;;;2.20;;
76826;SDS011;65788;52.284;20.890;2023-07-29T06:23:47;4.10;;;2.00;;
76826;SDS011;65788;52.284;20.890;2023-07-29T06:26:14;2.80;;;2.00;;
76826;SDS011;65788;52.284;20.890;2023-07-29T06:28:41;2.60;;;1.90;;
76826;SDS011;65788;52.284;20.890;2023-07-29T06:31:07;2.80;;;2.10;;
76826;SDS011;65788;52.284;20.890;2023-07-29T06:33:34;4.10;;;2.00;;
76826;SDS011;65788;52.284;20.890;2023-07-29T06:36:00;3.70;;;2.70;;
76826;SDS011;65788;52.284;20.890;2023-07-29T06:38:27;2.50;;;2.10;;
76826;SDS011;65788;52.284;20.890;2023-07-29T06:40:54;3.70;;;2.00;;
76826;SDS011;65788;52.284;20.890;2023-07-29T06:43:21;2.60;;;2.10;;
76826;SDS011;65788;52.284;20.890;2023-07-29T06:45:47;2.50;;;1.90;;
76826;SDS011;65788;52.284;20.890;2023-07-29T06:48:14;2.90;;;2.20;;
76826;SDS011;65788;52.284;20.890;2023-07-29T06:50:41;3.30;;;2.20;;
76826;SDS011;65788;52.284;20.890;2023-07-29T06:53:07;2.90;;;2.30;;
76826;SDS011;65788;52.284;20.890;2023-07-29T06:55:35;3.30;;;2.60;;
76826;SDS011;65788;52.284;20.890;2023-07-29T06:58:02;3.00;;;2.40;;
76826;SDS011;65788;52.284;20.890;2023-07-29T07:00:29;3.20;;;2.50;;
76826;SDS011;65788;52.284;20.890;2023-07-29T07:02:55;3.00;;;2.30;;
76826;SDS011;65788;52.284;20.890;2023-07-29T07:05:22;3.10;;;2.20;;
76826;SDS011;65788;52.284;20.890;2023-07-29T07:07:49;3.50;;;2.40;;
76826;SDS011;65788;52.284;20.890;2023-07-29T07:10:15;2.80;;;2.30;;
76826;SDS011;65788;52.284;20.890;2023-07-29T07:12:42;3.00;;;2.10;;
76826;SDS011;65788;52.284;20.890;2023-07-29T07:15:09;2.70;;;2.10;;
76826;SDS011;65788;52.284;20.890;2023-07-29T07:17:35;3.10;;;2.30;;
76826;SDS011;65788;52.284;20.890;2023-07-29T07:20:03;3.00;;;2.60;;
76826;SDS011;65788;52.284;20.890;2023-07-29T07:22:30;3.40;;;2.80;;
76826;SDS011;65788;52.284;20.890;2023-07-29T07:24:56;2.70;;;2.10;;
76826;SDS011;65788;52.284;20.890;2023-07-29T07:27:23;2.80;;;2.10;;
76826;SDS011;65788;52.284;20.890;2023-07-29T07:29:50;2.80;;;2.40;;
76826;SDS011;65788;52.284;20.890;2023-07-29T07:32:16;3.10;;;2.40;;
76826;SDS011;65788;52.284;20.890;2023-07-29T07:34:43;2.60;;;2.10;;
76826;SDS011;65788;52.284;20.890;2023-07-29T07:37:10;3.50;;;2.60;;
76826;SDS011;65788;52.284;20.890;2023-07-29T07:39:36;3.40;;;2.20;;
76826;SDS011;65788;52.284;20.890;2023-07-29T07:42:03;3.50;;;2.40;;
76826;SDS011;65788;52.284;20.890;2023-07-29T07:44:30;3.30;;;2.20;;
76826;SDS011;65788;52.284;20.890;2023-07-29T07:46:57;3.30;;;2.20;;
76826;SDS011;65788;52.284;20.890;2023-07-29T07:49:24;3.20;;;2.40;;
76826;SDS011;65788;52.284;20.890;2023-07-29T07:51:51;2.80;;;2.20;;
76826;SDS011;65788;52.284;20.890;2023-07-29T07:54:17;3.40;;;2.60;;
76826;SDS011;65788;52.284;20.890;2023-07-29T07:56:44;3.60;;;3.10;;
76826;SDS011;65788;52.284;20.890;2023-07-29T07:59:11;3.90;;;2.20;;
76826;SDS011;65788;52.284;20.890;2023-07-29T08:01:37;3.30;;;2.60;;
76826;SDS011;65788;52.284;20.890;2023-07-29T08:04:05;3.20;;;2.60;;
76826;SDS011;65788;52.284;20.890;2023-07-29T08:06:32;4.20;;;2.80;;
76826;SDS011;65788;52.284;20.890;2023-07-29T08:08:59;3.90;;;3.30;;
76826;SDS011;65788;52.284;20.890;2023-07-29T08:11:26;2.80;;;2.40;;
76826;SDS011;65788;52.284;20.890;2023-07-29T08:13:52;3.20;;;2.50;;
76826;SDS011;65788;52.284;20.890;2023-07-29T08:16:19;3.10;;;2.40;;
76826;SDS011;65788;52.284;20.890;2023-07-29T08:18:46;3.30;;;2.40;;
76826;SDS011;65788;52.284;20.890;2023-07-29T08:21:13;3.20;;;2.30;;
76826;SDS011;65788;52.284;20.890;2023-07-29T08:23:40;4.40;;;2.70;;
76826;SDS011;65788;52.284;20.890;2023-07-29T08:26:07;3.70;;;2.50;;
76826;SDS011;65788;52.284;20.890;2023-07-29T08:28:34;4.00;;;2.70;;
76826;SDS011;65788;52.284;20.890;2023-07-29T08:31:03;3.10;;;2.50;;
76826;SDS011;65788;52.284;20.890;2023-07-29T08:33:31;3.00;;;2.10;;
76826;SDS011;65788;52.284;20.890;2023-07-29T08:36:00;2.90;;;2.20;;
76826;SDS011;65788;52.284;20.890;2023-07-29T08:38:27;3.10;;;2.40;;
76826;SDS011;65788;52.284;20.890;2023-07-29T08:46:37;3.40;;;2.50;;
76826;SDS011;65788;52.284;20.890;2023-07-29T08:49:05;3.00;;;2.40;;
76826;SDS011;65788;52.284;20.890;2023-07-29T08:51:32;4.00;;;2.40;;
76826;SDS011;65788;52.284;20.890;2023-07-29T08:54:00;3.00;;;2.40;;
76826;SDS011;65788;52.284;20.890;2023-07-29T08:56:27;3.20;;;2.50;;
76826;SDS011;65788;52.284;20.890;2023-07-29T08:58:56;4.10;;;2.50;;
76826;SDS011;65788;52.284;20.890;2023-07-29T09:01:24;3.40;;;2.50;;
76826;SDS011;65788;52.284;20.890;2023-07-29T09:03:51;3.70;;;2.60;;
76826;SDS011;65788;52.284;20.890;2023-07-29T09:06:17;3.40;;;2.70;;
76826;SDS011;65788;52.284;20.890;2023-07-29T09:08:45;3.60;;;2.90;;
76826;SDS011;65788;52.284;20.890;2023-07-29T09:13:43;3.30;;;2.60;;
76826;SDS011;65788;52.284;20.890;2023-07-29T09:16:10;3.20;;;2.20;;
76826;SDS011;65788;52.284;20.890;2023-07-29T09:18:37;3.10;;;2.60;;
76826;SDS011;65788;52.284;20.890;2023-07-29T09:21:03;3.40;;;2.40;;
76826;SDS011;65788;52.284;20.890;2023-07-29T09:23:40;2.60;;;2.20;;
76826;SDS011;65788;52.284;20.890;2023-07-29T09:26:08;3.00;;;2.50;;
76826;SDS011;65788;52.284;20.890;2023-07-29T09:28:35;3.10;;;2.20;;
76826;SDS011;65788;52.284;20.890;2023-07-29T09:31:06;3.10;;;2.20;;
76826;SDS011;65788;52.284;20.890;2023-07-29T09:33:33;2.90;;;2.40;;
76826;SDS011;65788;52.284;20.890;2023-07-29T09:36:08;3.60;;;2.70;;
76826;SDS011;65788;52.284;20.890;2023-07-29T09:38:36;3.10;;;2.40;;
76826;SDS011;65788;52.284;20.890;2023-07-29T09:41:04;3.00;;;2.30;;
76826;SDS011;65788;52.284;20.890;2023-07-29T09:43:31;2.90;;;2.20;;
76826;SDS011;65788;52.284;20.890;2023-07-29T09:46:00;3.10;;;2.30;;
76826;SDS011;65788;52.284;20.890;2023-07-29T09:48:34;3.00;;;2.40;;
76826;SDS011;65788;52.284;20.890;2023-07-29T09:51:12;3.00;;;2.20;;
76826;SDS011;65788;52.284;20.890;2023-07-29T09:53:43;3.70;;;2.30;;
76826;SDS011;65788;52.284;20.890;2023-07-29T09:56:12;2.90;;;2.30;;
76826;SDS011;65788;52.284;20.890;2023-07-29T09:58:39;3.30;;;2.40;;
76826;SDS011;65788;52.284;20.890;2023-07-29T10:01:07;3.10;;;2.20;;
76826;SDS011;65788;52.284;20.890;2023-07-29T10:03:34;3.70;;;2.40;;
76826;SDS011;65788;52.284;20.890;2023-07-29T10:06:02;2.60;;;2.10;;
76826;SDS011;65788;52.284;20.890;2023-07-29T10:08:30;3.60;;;2.50;;
76826;SDS011;65788;52.284;20.890;2023-07-29T10:10:59;3.20;;;2.50;;
76826;SDS011;65788;52.284;20.890;2023-07-29T10:13:26;3.50;;;2.30;;
76826;SDS011;65788;52.284;20.890;2023-07-29T10:15:54;3.30;;;2.40;;
76826;SDS011;65788;52.284;20.890;2023-07-29T10:20:50;3.80;;;2.30;;
76826;SDS011;65788;52.284;20.890;2023-07-29T10:25:57;2.60;;;2.10;;
76826;SDS011;65788;52.284;20.890;2023-07-29T10:28:32;2.60;;;2.00;;
76826;SDS011;65788;52.284;20.890;2023-07-29T10:31:01;3.00;;;2.40;;
76826;SDS011;65788;52.284;20.890;2023-07-29T10:33:30;2.60;;;1.80;;
76826;SDS011;65788;52.284;20.890;2023-07-29T10:36:00;2.70;;;2.10;;
76826;SDS011;65788;52.284;20.890;2023-07-29T10:38:28;3.20;;;2.20;;
76826;SDS011;65788;52.284;20.890;2023-07-29T10:40:56;2.80;;;2.10;;
76826;SDS011;65788;52.284;20.890;2023-07-29T10:43:26;2.90;;;2.00;;
76826;SDS011;65788;52.284;20.890;2023-07-29T10:45:57;3.00;;;2.20;;
76826;SDS011;65788;52.284;20.890;2023-07-29T10:48:53;3.50;;;2.20;;
76826;SDS011;65788;52.284;20.890;2023-07-29T10:53:55;2.70;;;2.10;;
76826;SDS011;65788;52.284;20.890;2023-07-29T10:56:27;2.40;;;1.90;;
76826;SDS011;65788;52.284;20.890;2023-07-29T11:02:00;2.70;;;2.10;;
76826;SDS011;65788;52.284;20.890;2023-07-29T11:04:28;2.70;;;2.00;;
76826;SDS011;65788;52.284;20.890;2023-07-29T11:15:12;3.40;;;1.90;;
76826;SDS011;65788;52.284;20.890;2023-07-29T11:17:41;2.90;;;2.10;;
76826;SDS011;65788;52.284;20.890;2023-07-29T11:20:10;2.80;;;1.70;;
76826;SDS011;65788;52.284;20.890;2023-07-29T11:22:38;2.70;;;2.00;;
76826;SDS011;65788;52.284;20.890;2023-07-29T11:25:07;3.20;;;2.00;;
76826;SDS011;65788;52.284;20.890;2023-07-29T11:27:36;3.00;;;2.00;;
76826;SDS011;65788;52.284;20.890;2023-07-29T11:30:04;2.70;;;1.90;;
76826;SDS011;65788;52.284;20.890;2023-07-29T11:32:33;2.50;;;2.00;;
76826;SDS011;65788;52.284;20.890;2023-07-29T11:35:05;2.60;;;2.10;;
76826;SDS011;65788;52.284;20.890;2023-07-29T11:37:34;2.70;;;2.10;;
76826;SDS011;65788;52.284;20.890;2023-07-29T11:40:01;2.70;;;2.00;;
76826;SDS011;65788;52.284;20.890;2023-07-29T11:42:30;2.80;;;1.80;;
76826;SDS011;65788;52.284;20.890;2023-07-29T11:44:59;3.60;;;2.00;;
76826;SDS011;65788;52.284;20.890;2023-07-29T11:47:26;2.80;;;1.90;;
76826;SDS011;65788;52.284;20.890;2023-07-29T11:49:53;2.90;;;2.10;;
76826;SDS011;65788;52.284;20.890;2023-07-29T11:52:20;2.80;;;1.80;;
76826;SDS011;65788;52.284;20.890;2023-07-29T11:54:47;2.60;;;1.80;;
76826;SDS011;65788;52.284;20.890;2023-07-29T11:57:15;2.60;;;1.70;;
76826;SDS011;65788;52.284;20.890;2023-07-29T11:59:43;2.70;;;1.60;;
76826;SDS011;65788;52.284;20.890;2023-07-29T12:02:10;2.70;;;2.00;;
76826;SDS011;65788;52.284;20.890;2023-07-29T12:04:39;2.30;;;1.70;;
76826;SDS011;65788;52.284;20.890;2023-07-29T12:07:07;2.60;;;1.90;;
76826;SDS011;65788;52.284;20.890;2023-07-29T12:09:35;2.50;;;1.90;;
76826;SDS011;65788;52.284;20.890;2023-07-29T12:12:03;3.20;;;1.60;;
76826;SDS011;65788;52.284;20.890;2023-07-29T12:14:30;3.40;;;1.80;;
76826;SDS011;65788;52.284;20.890;2023-07-29T12:17:05;2.80;;;1.80;;
76826;SDS011;65788;52.284;20.890;2023-07-29T12:19:34;2.40;;;1.60;;
76826;SDS011;65788;52.284;20.890;2023-07-29T12:22:02;2.40;;;1.80;;
76826;SDS011;65788;52.284;20.890;2023-07-29T12:24:31;2.20;;;1.50;;
76826;SDS011;65788;52.284;20.890;2023-07-29T12:27:01;2.10;;;1.50;;
76826;SDS011;65788;52.284;20.890;2023-07-29T12:29:27;2.20;;;1.80;;
76826;SDS011;65788;52.284;20.890;2023-07-29T12:32:01;2.80;;;1.70;;
76826;SDS011;65788;52.284;20.890;2023-07-29T12:34:29;2.10;;;1.50;;
76826;SDS011;65788;52.284;20.890;2023-07-29T12:36:58;2.30;;;1.80;;
76826;SDS011;65788;52.284;20.890;2023-07-29T12:39:26;3.00;;;1.80;;
76826;SDS011;65788;52.284;20.890;2023-07-29T12:41:58;2.10;;;1.40;;
76826;SDS011;65788;52.284;20.890;2023-07-29T12:44:33;2.80;;;1.50;;
76826;SDS011;65788;52.284;20.890;2023-07-29T12:47:02;2.90;;;1.90;;
76826;SDS011;65788;52.284;20.890;2023-07-29T12:49:30;2.40;;;1.50;;
76826;SDS011;65788;52.284;20.890;2023-07-29T12:51:58;2.20;;;1.60;;
76826;SDS011;65788;52.284;20.890;2023-07-29T12:54:26;2.30;;;1.50;;
76826;SDS011;65788;52.284;20.890;2023-07-29T12:56:52;2.80;;;1.60;;
76826;SDS011;65788;52.284;20.890;2023-07-29T12:59:19;2.50;;;1.80;;
76826;SDS011;65788;52.284;20.890;2023-07-29T13:01:46;9.90;;;3.00;;
76826;SDS011;65788;52.284;20.890;2023-07-29T13:04:12;8.90;;;2.30;;
76826;SDS011;65788;52.284;20.890;2023-07-29T13:06:39;6.40;;;2.50;;
76826;SDS011;65788;52.284;20.890;2023-07-29T13:09:06;5.70;;;2.30;;
76826;SDS011;65788;52.284;20.890;2023-07-29T13:11:32;4.70;;;2.00;;
76826;SDS011;65788;52.284;20.890;2023-07-29T13:13:59;4.60;;;2.00;;
76826;SDS011;65788;52.284;20.890;2023-07-29T13:16:29;3.80;;;2.00;;
76826;SDS011;65788;52.284;20.890;2023-07-29T13:18:57;3.30;;;1.80;;
76826;SDS011;65788;52.284;20.890;2023-07-29T13:21:24;3.30;;;1.50;;
76826;SDS011;65788;52.284;20.890;2023-07-29T13:23:51;3.60;;;1.90;;
76826;SDS011;65788;52.284;20.890;2023-07-29T13:26:18;3.00;;;1.60;;
76826;SDS011;65788;52.284;20.890;2023-07-29T13:28:44;2.60;;;1.40;;
76826;SDS011;65788;52.284;20.890;2023-07-29T13:31:11;4.50;;;1.90;;
76826;SDS011;65788;52.284;20.890;2023-07-29T13:33:39;4.20;;;2.10;;
76826;SDS011;65788;52.284;20.890;2023-07-29T13:36:06;3.20;;;2.00;;
76826;SDS011;65788;52.284;20.890;2023-07-29T13:38:34;2.90;;;1.80;;
76826;SDS011;65788;52.284;20.890;2023-07-29T13:41:01;3.20;;;2.00;;
76826;SDS011;65788;52.284;20.890;2023-07-29T13:43:28;2.50;;;1.60;;
76826;SDS011;65788;52.284;20.890;2023-07-29T13:45:55;3.20;;;1.90;;
76826;SDS011;65788;52.284;20.890;2023-07-29T13:48:22;2.50;;;1.50;;
76826;SDS011;65788;52.284;20.890;2023-07-29T13:50:48;3.20;;;1.80;;
76826;SDS011;65788;52.284;20.890;2023-07-29T13:53:15;2.20;;;1.40;;
76826;SDS011;65788;52.284;20.890;2023-07-29T13:55:42;3.50;;;1.70;;
76826;SDS011;65788;52.284;20.890;2023-07-29T13:58:08;4.10;;;1.70;;
76826;SDS011;65788;52.284;20.890;2023-07-29T14:00:35;2.50;;;1.60;;
76826;SDS011;65788;52.284;20.890;2023-07-29T14:03:02;2.80;;;1.60;;
76826;SDS011;65788;52.284;20.890;2023-07-29T14:05:29;2.20;;;1.60;;
76826;SDS011;65788;52.284;20.890;2023-07-29T14:07:56;2.90;;;1.70;;
76826;SDS011;65788;52.284;20.890;2023-07-29T14:10:22;3.60;;;1.70;;
76826;SDS011;65788;52.284;20.890;2023-07-29T14:12:49;2.10;;;1.40;;
76826;SDS011;65788;52.284;20.890;2023-07-29T14:15:16;2.40;;;1.60;;
76826;SDS011;65788;52.284;20.890;2023-07-29T14:17:42;2.40;;;1.70;;
76826;SDS011;65788;52.284;20.890;2023-07-29T14:20:09;2.90;;;1.90;;
76826;SDS011;65788;52.284;20.890;2023-07-29T14:22:37;2.20;;;1.70;;
76826;SDS011;65788;52.284;20.890;2023-07-29T14:25:03;2.20;;;1.50;;
76826;SDS011;65788;52.284;20.890;2023-07-29T14:27:31;2.40;;;1.60;;
76826;SDS011;65788;52.284;20.890;2023-07-29T14:29:57;2.30;;;1.40;;
76826;SDS011;65788;52.284;20.890;2023-07-29T14:32:24;2.40;;;1.40;;
76826;SDS011;65788;52.284;20.890;2023-07-29T14:34:50;2.10;;;1.50;;
76826;SDS011;65788;52.284;20.890;2023-07-29T14:37:18;2.70;;;1.50;;
76826;SDS011;65788;52.284;20.890;2023-07-29T14:39:44;2.50;;;1.50;;
76826;SDS011;65788;52.284;20.890;2023-07-29T14:42:11;2.20;;;1.60;;
76826;SDS011;65788;52.284;20.890;2023-07-29T14:44:38;2.20;;;1.60;;
76826;SDS011;65788;52.284;20.890;2023-07-29T14:47:05;2.70;;;1.50;;
76826;SDS011;65788;52.284;20.890;2023-07-29T14:49:32;2.60;;;1.60;;
76826;SDS011;65788;52.284;20.890;2023-07-29T14:51:58;2.30;;;1.50;;
76826;SDS011;65788;52.284;20.890;2023-07-29T14:54:25;2.60;;;1.50;;
76826;SDS011;65788;52.284;20.890;2023-07-29T14:56:52;2.70;;;2.00;;
76826;SDS011;65788;52.284;20.890;2023-07-29T14:59:18;2.00;;;1.40;;
76826;SDS011;65788;52.284;20.890;2023-07-29T15:01:45;2.10;;;1.40;;
76826;SDS011;65788;52.284;20.890;2023-07-29T15:04:12;1.90;;;1.40;;
76826;SDS011;65788;52.284;20.890;2023-07-29T15:06:38;2.50;;;1.60;;
76826;SDS011;65788;52.284;20.890;2023-07-29T15:09:05;2.40;;;1.50;;